createdAt,value
2023-06-19T00:00:20.695Z,3762.00
2023-06-19T00:01:20.703Z,3748.00
2023-06-19T00:02:20.716Z,3745.00
2023-06-19T00:03:20.769Z,3744.00
2023-06-19T00:04:20.891Z,3749.00
2023-06-19T00:05:20.839Z,3736.00
2023-06-19T00:06:20.874Z,3742.00
2023-06-19T00:07:20.914Z,3732.00
2023-06-19T00:08:20.960Z,3736.00
2023-06-19T00:09:21.030Z,3749.00
2023-06-19T00:10:21.520Z,3733.00
2023-06-19T00:11:21.153Z,3725.00
2023-06-19T00:12:21.232Z,3719.00
2023-06-19T00:13:21.277Z,3728.00
2023-06-19T00:14:21.313Z,3720.00
2023-06-19T00:15:21.381Z,3713.00
2023-06-19T00:16:21.494Z,3712.00
2023-06-19T00:17:21.555Z,3711.00
2023-06-19T00:18:21.576Z,3703.00
2023-06-19T00:19:21.654Z,3714.00
2023-06-19T00:20:21.880Z,3704.00
2023-06-19T00:21:21.779Z,3700.00
2023-06-19T00:22:21.846Z,3700.00
2023-06-19T00:23:21.918Z,3686.00
2023-06-19T00:24:22.025Z,3688.00
2023-06-19T00:25:22.025Z,3677.00
2023-06-19T00:26:22.086Z,3684.00
2023-06-19T00:27:22.141Z,3687.00
2023-06-19T00:28:22.211Z,3686.00
2023-06-19T00:29:22.263Z,3673.00
2023-06-19T00:30:22.693Z,3673.00
2023-06-19T00:31:22.405Z,3672.00
2023-06-19T00:32:22.528Z,3685.00
2023-06-19T00:33:22.523Z,3670.00
2023-06-19T00:34:22.601Z,3671.00
2023-06-19T00:35:22.665Z,3673.00
2023-06-19T00:36:22.732Z,3660.00
2023-06-19T00:37:22.800Z,3663.00
2023-06-19T00:38:22.864Z,3661.00
2023-06-19T00:39:22.917Z,3663.00
2023-06-19T00:40:23.261Z,3653.00
2023-06-19T00:41:23.031Z,3665.00
2023-06-19T00:42:23.098Z,3659.00
2023-06-19T00:43:23.163Z,3647.00
2023-06-19T00:44:23.159Z,3648.00
2023-06-19T00:45:23.150Z,3650.00
2023-06-19T00:46:23.191Z,3651.00
2023-06-19T00:47:23.182Z,3663.00
2023-06-19T00:48:23.158Z,3655.00
2023-06-19T00:49:23.151Z,3654.00
2023-06-19T00:50:23.413Z,3638.00
2023-06-19T00:51:23.147Z,3634.00
2023-06-19T00:52:23.168Z,3645.00
2023-06-19T00:53:23.233Z,3635.00
2023-06-19T00:54:23.308Z,3633.00
2023-06-19T00:55:23.377Z,3629.00
2023-06-19T00:56:23.453Z,3636.00
2023-06-19T00:57:23.506Z,3629.00
2023-06-19T00:58:23.574Z,3642.00
2023-06-19T00:59:23.632Z,3630.00
2023-06-19T01:00:24.024Z,3617.00
2023-06-19T01:01:23.755Z,3610.00
2023-06-19T01:02:23.900Z,3611.00
2023-06-19T01:03:23.959Z,3606.00
2023-06-19T01:04:24.019Z,3603.00
2023-06-19T01:05:24.031Z,3605.00
2023-06-19T01:06:24.105Z,3604.00
2023-06-19T01:07:24.187Z,3597.00
2023-06-19T01:08:24.247Z,3598.00
2023-06-19T01:09:24.322Z,3578.00
2023-06-19T01:10:24.588Z,3584.00
2023-06-19T01:11:26.776Z,3600.00
2023-06-19T01:12:24.454Z,3589.00
2023-06-19T01:13:24.453Z,3586.00
2023-06-19T01:14:24.457Z,3576.00
2023-06-19T01:15:24.465Z,3576.00
2023-06-19T01:16:24.516Z,3577.00
2023-06-19T01:17:24.502Z,3574.00
2023-06-19T01:18:24.477Z,3573.00
2023-06-19T01:19:24.468Z,3573.00
2023-06-19T01:20:24.701Z,3566.00
2023-06-19T01:21:24.460Z,3560.00
2023-06-19T01:22:24.479Z,3557.00
2023-06-19T01:23:24.473Z,3569.00
2023-06-19T01:24:24.521Z,3557.00
2023-06-19T01:25:24.458Z,3561.00
2023-06-19T01:26:24.477Z,3566.00
2023-06-19T01:27:24.478Z,3561.00
2023-06-19T01:28:24.460Z,3545.00
2023-06-19T01:29:24.457Z,3549.00
2023-06-19T01:30:24.700Z,3539.00
2023-06-19T01:31:24.462Z,3542.00
2023-06-19T01:32:24.483Z,3542.00
2023-06-19T01:33:24.472Z,3553.00
2023-06-19T01:34:24.457Z,3547.00
2023-06-19T01:35:24.452Z,3536.00
2023-06-19T01:36:24.439Z,3546.00
2023-06-19T01:37:24.481Z,3536.00
2023-06-19T01:38:24.432Z,3528.00
2023-06-19T01:39:24.432Z,3532.00
2023-06-19T01:40:24.609Z,3530.00
2023-06-19T01:41:24.424Z,3534.00
2023-06-19T01:42:24.426Z,3537.00
2023-06-19T01:43:24.416Z,3524.00
2023-06-19T01:44:24.465Z,3522.00
2023-06-19T01:45:24.544Z,3503.00
2023-06-19T01:46:24.642Z,3523.00
2023-06-19T01:47:24.738Z,3521.00
2023-06-19T01:48:24.747Z,3521.00
2023-06-19T01:49:24.822Z,3511.00
2023-06-19T01:50:25.217Z,3494.00
2023-06-19T01:51:24.951Z,3512.00
2023-06-19T01:52:25.032Z,3506.00
2023-06-19T01:53:25.083Z,3511.00
2023-06-19T01:54:25.148Z,3500.00
2023-06-19T01:55:25.205Z,3503.00
2023-06-19T01:56:25.312Z,3506.00
2023-06-19T01:57:25.343Z,3507.00
2023-06-19T01:58:25.415Z,3479.00
2023-06-19T01:59:25.476Z,3501.00
2023-06-19T02:00:25.789Z,3487.00
2023-06-19T02:01:25.637Z,3497.00
2023-06-19T02:02:25.708Z,3493.00
2023-06-19T02:03:25.849Z,3490.00
2023-06-19T02:04:25.831Z,3488.00
2023-06-19T02:05:25.898Z,3486.00
2023-06-19T02:06:25.970Z,3481.00
2023-06-19T02:07:26.048Z,3468.00
2023-06-19T02:08:26.109Z,3476.00
2023-06-19T02:09:26.181Z,3483.00
2023-06-19T02:10:26.338Z,3486.00
2023-06-19T02:11:26.332Z,3470.00
2023-06-19T02:12:26.393Z,3472.00
2023-06-19T02:13:26.422Z,3473.00
2023-06-19T02:14:26.461Z,3473.00
2023-06-19T02:15:26.407Z,3468.00
2023-06-19T02:16:26.508Z,3470.00
2023-06-19T02:17:26.500Z,3464.00
2023-06-19T02:18:26.488Z,3455.00
2023-06-19T02:19:26.515Z,3457.00
2023-06-19T02:20:26.599Z,3460.00
2023-06-19T02:21:26.509Z,3469.00
2023-06-19T02:22:26.490Z,3469.00
2023-06-19T02:23:26.379Z,3463.00
2023-06-19T02:24:26.443Z,3455.00
2023-06-19T02:25:26.418Z,3453.00
2023-06-19T02:26:26.380Z,3453.00
2023-06-19T02:27:26.379Z,3447.00
2023-06-19T02:28:26.388Z,3442.00
2023-06-19T02:29:26.401Z,3449.00
2023-06-19T02:30:26.506Z,3441.00
2023-06-19T02:31:26.430Z,3436.00
2023-06-19T02:32:26.506Z,3420.00
2023-06-19T02:33:26.583Z,3420.00
2023-06-19T02:34:26.607Z,3428.00
2023-06-19T02:35:26.733Z,3421.00
2023-06-19T02:36:26.718Z,3430.00
2023-06-19T02:37:26.777Z,3410.00
2023-06-19T02:38:26.827Z,3399.00
2023-06-19T02:39:26.852Z,3403.00
2023-06-19T02:40:27.032Z,3405.00
2023-06-19T02:41:26.920Z,3396.00
2023-06-19T02:42:26.984Z,3387.00
2023-06-19T02:43:27.013Z,3390.00
2023-06-19T02:44:27.053Z,3392.00
2023-06-19T02:45:27.105Z,3385.00
2023-06-19T02:46:27.179Z,3379.00
2023-06-19T02:47:27.142Z,3370.00
2023-06-19T02:48:27.131Z,3366.00
2023-06-19T02:49:27.129Z,3356.00
2023-06-19T02:50:27.331Z,3348.00
2023-06-19T02:51:27.189Z,3342.00
2023-06-19T02:52:27.180Z,3337.00
2023-06-19T02:53:27.200Z,3337.00
2023-06-19T02:54:27.258Z,3345.00
2023-06-19T02:55:27.300Z,3351.00
2023-06-19T02:56:27.343Z,3333.00
2023-06-19T02:57:27.390Z,3340.00
2023-06-19T02:58:27.388Z,3325.00
2023-06-19T02:59:27.383Z,3321.00
2023-06-19T03:00:27.434Z,3328.00
2023-06-19T03:01:27.505Z,3309.00
2023-06-19T03:02:27.603Z,3319.00
2023-06-19T03:03:27.643Z,3297.00
2023-06-19T03:04:29.374Z,3293.00
2023-06-19T03:05:27.538Z,3185.00
2023-06-19T03:06:27.550Z,3065.00
2023-06-19T03:07:27.549Z,2925.00
2023-06-19T03:08:27.532Z,2797.00
2023-06-19T03:09:27.538Z,2685.00
2023-06-19T03:10:27.600Z,2601.00
2023-06-19T03:11:27.536Z,2454.00
2023-06-19T03:12:27.549Z,2300.00
2023-06-19T03:13:27.553Z,2186.00
2023-06-19T03:14:27.554Z,2069.00
2023-06-19T03:15:27.556Z,1962.00
2023-06-19T03:16:27.563Z,1846.00
2023-06-19T03:17:27.592Z,1734.00
2023-06-19T03:18:27.551Z,1647.00
2023-06-19T03:19:27.561Z,1553.00
2023-06-19T03:20:27.839Z,1464.00
2023-06-19T03:21:27.568Z,1372.00
2023-06-19T03:22:27.604Z,1312.00
2023-06-19T03:23:27.599Z,1217.00
2023-06-19T03:24:27.809Z,1150.00
2023-06-19T03:25:27.600Z,1094.00
2023-06-19T03:26:27.622Z,1008.00
2023-06-19T03:27:27.635Z,1001.00
2023-06-19T03:28:27.619Z,966.00
2023-06-19T03:29:27.647Z,924.00
2023-06-19T03:30:27.655Z,873.00
2023-06-19T03:31:27.645Z,844.00
2023-06-19T03:32:28.640Z,801.00
2023-06-19T03:33:27.700Z,779.00
2023-06-19T03:34:27.683Z,757.00
2023-06-19T03:35:27.687Z,716.00
2023-06-19T03:36:27.693Z,710.00
2023-06-19T03:37:27.727Z,690.00
2023-06-19T03:38:27.760Z,685.00
2023-06-19T03:39:27.743Z,685.00
2023-06-19T03:40:28.944Z,658.00
2023-06-19T03:41:27.754Z,657.00
2023-06-19T03:42:27.782Z,655.00
2023-06-19T03:43:27.773Z,655.00
2023-06-19T03:44:27.782Z,644.00
2023-06-19T03:45:27.782Z,648.00
2023-06-19T03:46:27.887Z,643.00
2023-06-19T03:47:27.841Z,639.00
2023-06-19T03:48:27.819Z,636.00
2023-06-19T03:49:27.825Z,631.00
2023-06-19T03:50:27.941Z,616.00
2023-06-19T03:51:27.847Z,625.00
2023-06-19T03:52:27.852Z,613.00
2023-06-19T03:53:27.857Z,603.00
2023-06-19T03:54:27.866Z,600.00
2023-06-19T03:55:27.894Z,590.00
2023-06-19T03:56:27.891Z,585.00
2023-06-19T03:57:27.894Z,583.00
2023-06-19T03:58:27.897Z,600.00
2023-06-19T03:59:27.938Z,596.00
2023-06-19T04:00:28.109Z,586.00
2023-06-19T04:01:27.998Z,581.00
2023-06-19T04:02:28.007Z,594.00
2023-06-19T04:03:28.083Z,591.00
2023-06-19T04:04:27.984Z,594.00
2023-06-19T04:05:27.994Z,603.00
2023-06-19T04:06:28.007Z,595.00
2023-06-19T04:07:28.009Z,610.00
2023-06-19T04:08:28.029Z,622.00
2023-06-19T04:09:28.038Z,629.00
2023-06-19T04:10:28.049Z,630.00
2023-06-19T04:11:28.050Z,635.00
2023-06-19T04:12:28.071Z,647.00
2023-06-19T04:13:28.074Z,654.00
2023-06-19T04:14:28.092Z,657.00
2023-06-19T04:15:28.129Z,675.00
2023-06-19T04:16:28.162Z,692.00
2023-06-19T04:17:28.135Z,700.00
2023-06-19T04:18:28.130Z,714.00
2023-06-19T04:19:28.134Z,714.00
2023-06-19T04:20:28.148Z,719.00
2023-06-19T04:21:28.156Z,720.00
2023-06-19T04:22:28.171Z,721.00
2023-06-19T04:23:28.174Z,723.00
2023-06-19T04:24:28.282Z,731.00
2023-06-19T04:25:28.190Z,762.00
2023-06-19T04:26:28.215Z,743.00
2023-06-19T04:27:28.211Z,743.00
2023-06-19T04:28:28.230Z,741.00
2023-06-19T04:29:28.235Z,757.00
2023-06-19T04:30:28.246Z,742.00
2023-06-19T04:31:28.255Z,743.00
2023-06-19T04:32:28.365Z,747.00
2023-06-19T04:33:28.400Z,744.00
2023-06-19T04:34:28.304Z,749.00
2023-06-19T04:35:28.295Z,759.00
2023-06-19T04:36:28.318Z,771.00
2023-06-19T04:37:28.330Z,786.00
2023-06-19T04:38:28.345Z,780.00
2023-06-19T04:39:28.362Z,759.00
2023-06-19T04:40:28.378Z,790.00
2023-06-19T04:41:28.395Z,807.00
2023-06-19T04:42:28.410Z,807.00
2023-06-19T04:43:28.409Z,844.00
2023-06-19T04:44:28.428Z,917.00
2023-06-19T04:45:28.442Z,935.00
2023-06-19T04:46:28.546Z,954.00
2023-06-19T04:47:43.555Z,942.00
2023-06-19T04:48:29.599Z,943.00
2023-06-19T04:49:28.563Z,946.00
2023-06-19T04:50:28.565Z,952.00
2023-06-19T04:51:28.577Z,947.00
2023-06-19T04:52:28.592Z,955.00
2023-06-19T04:53:28.597Z,959.00
2023-06-19T04:54:28.593Z,939.00
2023-06-19T04:55:28.608Z,931.00
2023-06-19T04:56:28.604Z,921.00
2023-06-19T04:57:28.623Z,923.00
2023-06-19T04:58:28.626Z,920.00
2023-06-19T04:59:28.638Z,928.00
2023-06-19T05:00:28.668Z,931.00
2023-06-19T05:01:28.801Z,928.00
2023-06-19T05:02:28.809Z,931.00
2023-06-19T05:03:28.854Z,911.00
2023-06-19T05:04:28.931Z,919.00
2023-06-19T05:05:28.989Z,896.00
2023-06-19T05:06:28.995Z,897.00
2023-06-19T05:07:29.020Z,900.00
2023-06-19T05:08:29.013Z,927.00
2023-06-19T05:09:29.039Z,992.00
2023-06-19T05:10:29.045Z,1054.00
2023-06-19T05:11:29.056Z,1138.00
2023-06-19T05:12:29.062Z,1215.00
2023-06-19T05:13:29.055Z,1320.00
2023-06-19T05:14:29.070Z,1363.00
2023-06-19T05:15:29.070Z,1416.00
2023-06-19T05:16:29.194Z,1416.00
2023-06-19T05:17:29.126Z,1414.00
2023-06-19T05:18:29.119Z,1425.00
2023-06-19T05:19:29.073Z,1450.00
2023-06-19T05:20:29.103Z,1493.00
2023-06-19T05:21:29.132Z,1498.00
2023-06-19T05:22:29.181Z,1512.00
2023-06-19T05:23:29.202Z,1571.00
2023-06-19T05:24:29.263Z,1592.00
2023-06-19T05:25:29.271Z,1631.00
2023-06-19T05:26:29.342Z,1652.00
2023-06-19T05:27:29.370Z,1665.00
2023-06-19T05:28:29.380Z,1705.00
2023-06-19T05:29:29.400Z,1674.00
2023-06-19T05:30:29.438Z,1656.00
2023-06-19T05:31:29.489Z,1688.00
2023-06-19T05:32:29.610Z,1720.00
2023-06-19T05:33:29.548Z,1736.00
2023-06-19T05:34:29.582Z,1778.00
2023-06-19T05:35:29.619Z,1777.00
2023-06-19T05:36:29.652Z,1780.00
2023-06-19T05:37:29.721Z,1808.00
2023-06-19T05:38:29.726Z,1841.00
2023-06-19T05:39:29.765Z,1786.00
2023-06-19T05:40:29.811Z,1685.00
2023-06-19T05:41:29.841Z,1609.00
2023-06-19T05:42:29.890Z,1607.00
2023-06-19T05:43:29.932Z,1639.00
2023-06-19T05:44:29.962Z,1811.00
2023-06-19T05:45:30.005Z,1974.00
2023-06-19T05:46:30.052Z,2160.00
2023-06-19T05:47:30.113Z,2338.00
2023-06-19T05:48:30.104Z,2439.00
2023-06-19T05:49:30.121Z,2561.00
2023-06-19T05:50:30.140Z,2675.00
2023-06-19T05:51:30.160Z,2698.00
2023-06-19T05:52:30.206Z,2734.00
2023-06-19T05:53:30.198Z,2850.00
2023-06-19T05:54:30.188Z,2894.00
2023-06-19T05:55:30.262Z,2936.00
2023-06-19T05:56:30.198Z,2974.00
2023-06-19T05:57:30.223Z,2980.00
2023-06-19T05:58:30.219Z,3028.00
2023-06-19T05:59:30.229Z,3067.00
2023-06-19T06:00:30.257Z,3101.00
2023-06-19T06:01:30.294Z,3093.00
2023-06-19T06:02:30.269Z,2996.00
2023-06-19T06:03:30.254Z,3003.00
2023-06-19T06:04:30.284Z,2971.00
2023-06-19T06:05:30.253Z,2945.00
2023-06-19T06:06:30.256Z,2887.00
2023-06-19T06:07:30.285Z,2731.00
2023-06-19T06:08:30.279Z,2675.00
2023-06-19T06:09:30.332Z,2657.00
2023-06-19T06:10:30.366Z,2648.00
2023-06-19T06:11:30.364Z,2624.00
2023-06-19T06:12:30.395Z,2579.00
2023-06-19T06:13:30.403Z,2577.00
2023-06-19T06:14:30.459Z,2452.00
2023-06-19T06:15:30.449Z,2421.00
2023-06-19T06:16:30.521Z,2482.00
2023-06-19T06:17:30.597Z,2483.00
2023-06-19T06:18:30.641Z,2389.00
2023-06-19T06:19:32.883Z,2334.00
2023-06-19T06:20:30.809Z,2341.00
2023-06-19T06:21:30.859Z,2320.00
2023-06-19T06:22:30.917Z,2268.00
2023-06-19T06:23:30.965Z,2186.00
2023-06-19T06:24:31.083Z,2189.00
2023-06-19T06:25:31.105Z,2123.00
2023-06-19T06:26:31.147Z,1801.00
2023-06-19T06:27:31.183Z,1561.00
2023-06-19T06:28:31.171Z,1307.00
2023-06-19T06:29:31.201Z,1010.00
2023-06-19T06:30:31.178Z,736.00
2023-06-19T06:31:31.207Z,627.00
2023-06-19T06:32:31.214Z,553.00
2023-06-19T06:33:31.221Z,499.00
2023-06-19T06:34:31.219Z,504.00
2023-06-19T06:35:31.221Z,496.00
2023-06-19T06:37:31.246Z,457.00
2023-06-19T06:38:31.236Z,436.00
2023-06-19T06:39:31.240Z,435.00
2023-06-19T06:40:31.233Z,436.00
2023-06-19T06:41:31.245Z,424.00
2023-06-19T06:42:31.268Z,435.00
2023-06-19T06:43:31.248Z,474.00
2023-06-19T06:44:31.264Z,480.00
2023-06-19T06:45:31.302Z,483.00
2023-06-19T06:46:31.284Z,449.00
2023-06-19T06:47:31.295Z,469.00
2023-06-19T06:48:31.244Z,500.00
2023-06-19T06:49:31.276Z,499.00
2023-06-19T06:50:31.258Z,509.00
2023-06-19T06:51:31.267Z,504.00
2023-06-19T06:52:31.246Z,523.00
2023-06-19T06:53:31.241Z,520.00
2023-06-19T06:54:31.240Z,528.00
2023-06-19T06:55:31.259Z,506.00
2023-06-19T06:56:31.262Z,503.00
2023-06-19T06:57:31.256Z,538.00
2023-06-19T06:58:31.252Z,634.00
2023-06-19T06:59:31.250Z,837.00
2023-06-19T07:00:31.238Z,1003.00
2023-06-19T07:01:31.311Z,1272.00
2023-06-19T07:02:31.260Z,1486.00
2023-06-19T07:03:31.258Z,1602.00
2023-06-19T07:04:31.239Z,1838.00
2023-06-19T07:05:31.228Z,1875.00
2023-06-19T07:06:31.232Z,1910.00
2023-06-19T07:07:31.230Z,2014.00
2023-06-19T07:08:31.200Z,2019.00
2023-06-19T07:09:31.196Z,2061.00
2023-06-19T07:10:31.206Z,2175.00
2023-06-19T07:11:31.208Z,2255.00
2023-06-19T07:12:31.194Z,2481.00
2023-06-19T07:13:31.177Z,2606.00
2023-06-19T07:14:31.180Z,2541.00
2023-06-19T07:15:31.207Z,2518.00
2023-06-19T07:16:31.239Z,2521.00
2023-06-19T07:17:31.201Z,2491.00
2023-06-19T07:18:31.216Z,2535.00
2023-06-19T07:19:31.159Z,2594.00
2023-06-19T07:20:31.144Z,2777.00
2023-06-19T07:21:31.131Z,2736.00
2023-06-19T07:22:31.137Z,2686.00
2023-06-19T07:23:31.158Z,2725.00
2023-06-19T07:24:31.200Z,2761.00
2023-06-19T07:25:31.229Z,2824.00
2023-06-19T07:26:31.282Z,2900.00
2023-06-19T07:27:31.331Z,2964.00
2023-06-19T07:28:31.381Z,2998.00
2023-06-19T07:29:31.418Z,2998.00
2023-06-19T07:30:31.549Z,3027.00
2023-06-19T07:31:31.513Z,3038.00
2023-06-19T07:32:31.681Z,3106.00
2023-06-19T07:33:31.597Z,3162.00
2023-06-19T07:34:31.637Z,3248.00
2023-06-19T07:35:31.740Z,3351.00
2023-06-19T07:36:31.705Z,3421.00
2023-06-19T07:37:32.897Z,3472.00
2023-06-19T07:38:31.796Z,3492.00
2023-06-19T07:39:31.835Z,3398.00
2023-06-19T07:40:31.876Z,3343.00
2023-06-19T07:41:31.882Z,3209.00
2023-06-19T07:42:31.871Z,3033.00
2023-06-19T07:43:31.843Z,2966.00
2023-06-19T07:44:31.840Z,2603.00
2023-06-19T07:45:31.823Z,2194.00
2023-06-19T07:46:31.871Z,1986.00
2023-06-19T07:47:31.847Z,1823.00
2023-06-19T07:48:31.791Z,1759.00
2023-06-19T07:49:31.792Z,1736.00
2023-06-19T07:50:32.009Z,1730.00
2023-06-19T07:51:31.748Z,1727.00
2023-06-19T07:52:31.891Z,1838.00
2023-06-19T07:53:31.799Z,1918.00
2023-06-19T07:54:31.820Z,1965.00
2023-06-19T07:55:31.854Z,2077.00
2023-06-19T07:56:31.890Z,2162.00
2023-06-19T07:57:31.874Z,2165.00
2023-06-19T07:58:31.857Z,2191.00
2023-06-19T07:59:31.854Z,2254.00
2023-06-19T08:00:31.817Z,2366.00
2023-06-19T08:01:31.804Z,2531.00
2023-06-19T08:02:31.845Z,2177.00
2023-06-19T08:03:31.924Z,2227.00
2023-06-19T08:04:33.265Z,2308.00
2023-06-19T08:05:31.740Z,2426.00
2023-06-19T08:06:31.711Z,2605.00
2023-06-19T08:07:31.702Z,2600.00
2023-06-19T08:08:31.724Z,2631.00
2023-06-19T08:09:31.668Z,2663.00
2023-06-19T08:10:31.821Z,2670.00
2023-06-19T08:11:31.619Z,2682.00
2023-06-19T08:12:31.610Z,2685.00
2023-06-19T08:13:31.590Z,2685.00
2023-06-19T08:14:31.590Z,2698.00
2023-06-19T08:15:31.552Z,2736.00
2023-06-19T08:16:31.600Z,2752.00
2023-06-19T08:17:31.575Z,2360.00
2023-06-19T08:18:31.496Z,1939.00
2023-06-19T08:19:31.483Z,1653.00
2023-06-19T08:20:31.462Z,1679.00
2023-06-19T08:21:31.458Z,1598.00
2023-06-19T08:22:31.435Z,1388.00
2023-06-19T08:23:31.467Z,1151.00
2023-06-19T08:24:31.509Z,787.00
2023-06-19T08:25:31.438Z,578.00
2023-06-19T08:26:31.360Z,484.00
2023-06-19T08:27:31.372Z,507.00
2023-06-19T08:28:31.348Z,501.00
2023-06-19T08:29:31.337Z,502.00
2023-06-19T08:30:31.321Z,519.00
2023-06-19T08:31:31.316Z,592.00
2023-06-19T08:32:31.340Z,730.00
2023-06-19T08:33:31.299Z,987.00
2023-06-19T08:34:31.280Z,1117.00
2023-06-19T08:35:31.299Z,1324.00
2023-06-19T08:36:31.344Z,1461.00
2023-06-19T08:37:31.351Z,1619.00
2023-06-19T08:38:31.353Z,1811.00
2023-06-19T08:39:31.378Z,1969.00
2023-06-19T08:40:31.470Z,1973.00
2023-06-19T08:41:31.416Z,2069.00
2023-06-19T08:42:31.435Z,2125.00
2023-06-19T08:43:31.458Z,2192.00
2023-06-19T08:44:31.467Z,2240.00
2023-06-19T08:45:31.448Z,2233.00
2023-06-19T08:46:31.574Z,2182.00
2023-06-19T08:47:31.480Z,2250.00
2023-06-19T08:48:31.404Z,2236.00
2023-06-19T08:49:31.396Z,2238.00
2023-06-19T08:50:31.381Z,2152.00
2023-06-19T08:51:31.399Z,2106.00
2023-06-19T08:52:31.353Z,2300.00
2023-06-19T08:53:31.340Z,2498.00
2023-06-19T08:54:31.342Z,2600.00
2023-06-19T08:55:31.331Z,2564.00
2023-06-19T08:56:31.329Z,2531.00
2023-06-19T08:57:31.288Z,2534.00
2023-06-19T08:58:31.274Z,2553.00
2023-06-19T08:59:31.254Z,2597.00
2023-06-19T09:00:31.734Z,2540.00
2023-06-19T09:01:31.244Z,2568.00
2023-06-19T09:02:31.269Z,2599.00
2023-06-19T09:03:31.378Z,2669.00
2023-06-19T09:04:31.186Z,2834.00
2023-06-19T09:05:31.176Z,2874.00
2023-06-19T09:06:31.278Z,2830.00
2023-06-19T09:08:50.188Z,500.00
2023-06-19T09:09:50.166Z,500.00
2023-06-19T09:10:50.162Z,500.00
2023-06-19T09:11:50.172Z,500.00
2023-06-19T09:12:50.177Z,500.00
2023-06-19T09:13:50.252Z,500.00
2023-06-19T09:14:50.187Z,500.00
2023-06-19T09:15:50.191Z,500.00
2023-06-19T09:16:50.191Z,500.00
2023-06-19T09:17:50.226Z,500.00
2023-06-19T09:18:50.206Z,500.00
2023-06-19T09:19:50.225Z,500.00
2023-06-19T09:20:50.217Z,526.00
2023-06-19T09:21:50.240Z,529.00
2023-06-19T09:22:50.229Z,474.00
2023-06-19T09:23:50.252Z,487.00
2023-06-19T09:24:50.356Z,545.00
2023-06-19T09:25:50.286Z,517.00
2023-06-19T09:26:50.297Z,525.00
2023-06-19T09:27:50.430Z,522.00
2023-06-19T09:28:50.366Z,579.00
2023-06-19T09:29:50.404Z,598.00
2023-06-19T09:30:50.445Z,605.00
2023-06-19T09:31:50.516Z,594.00
2023-06-19T09:32:50.617Z,617.00
2023-06-19T09:33:50.688Z,536.00
2023-06-19T09:34:50.647Z,528.00
2023-06-19T09:35:50.672Z,607.00
2023-06-19T09:36:50.731Z,914.00
2023-06-19T09:37:50.764Z,988.00
2023-06-19T09:38:50.760Z,989.00
2023-06-19T09:39:50.769Z,1000.00
2023-06-19T09:40:50.766Z,977.00
2023-06-19T09:41:50.791Z,818.00
2023-06-19T09:42:50.791Z,830.00
2023-06-19T09:43:50.778Z,780.00
2023-06-19T09:44:50.799Z,696.00
2023-06-19T09:45:50.793Z,631.00
2023-06-19T09:46:50.848Z,631.00
2023-06-19T09:47:51.045Z,641.00
2023-06-19T09:48:50.807Z,640.00
2023-06-19T09:49:50.816Z,613.00
2023-06-19T09:50:50.822Z,611.00
2023-06-19T09:51:50.822Z,585.00
2023-06-19T09:52:50.826Z,491.00
2023-06-19T09:53:50.856Z,481.00
2023-06-19T09:54:50.858Z,442.00
2023-06-19T09:55:50.865Z,409.00
2023-06-19T09:56:50.866Z,443.00
2023-06-19T09:57:50.875Z,438.00
2023-06-19T09:58:50.881Z,435.00
2023-06-19T09:59:50.882Z,400.00
2023-06-19T10:00:50.898Z,400.00
2023-06-19T10:01:50.888Z,400.00
2023-06-19T10:02:50.975Z,400.00
2023-06-19T10:03:50.967Z,458.00
2023-06-19T10:04:50.999Z,541.00
2023-06-19T10:05:51.070Z,529.00
2023-06-19T10:06:51.142Z,529.00
2023-06-19T10:07:51.220Z,497.00
2023-06-19T10:08:51.276Z,465.00
2023-06-19T10:09:51.352Z,517.00
2023-06-19T10:10:51.422Z,500.00
2023-06-19T10:11:51.492Z,524.00
2023-06-19T10:12:51.572Z,466.00
2023-06-19T10:13:51.612Z,484.00
2023-06-19T10:14:51.689Z,519.00
2023-06-19T10:15:51.756Z,500.00
2023-06-19T10:16:51.902Z,516.00
2023-06-19T10:17:51.940Z,500.00
2023-06-19T10:18:51.942Z,514.00
2023-06-19T10:19:51.949Z,447.00
2023-06-19T10:20:51.949Z,467.00
2023-06-19T10:21:51.961Z,441.00
2023-06-19T10:22:51.960Z,406.00
2023-06-19T10:23:51.994Z,414.00
2023-06-19T10:24:51.966Z,478.00
2023-06-19T10:25:51.970Z,505.00
2023-06-19T10:26:51.974Z,512.00
2023-06-19T10:27:52.005Z,499.00
2023-06-19T10:28:52.042Z,511.00
2023-06-19T10:30:03.633Z,567.00
2023-06-19T10:30:53.183Z,543.00
2023-06-19T10:31:52.139Z,496.00
2023-06-19T10:32:52.218Z,461.00
2023-06-19T10:33:52.164Z,478.00
2023-06-19T10:34:52.186Z,474.00
2023-06-19T10:35:52.205Z,554.00
2023-06-19T10:36:52.203Z,596.00
2023-06-19T10:37:52.193Z,622.00
2023-06-19T10:38:52.216Z,825.00
2023-06-19T10:39:52.277Z,954.00
2023-06-19T10:40:52.278Z,961.00
2023-06-19T10:41:52.333Z,1010.00
2023-06-19T10:42:52.312Z,1094.00
2023-06-19T10:43:52.292Z,1179.00
2023-06-19T10:44:52.295Z,1474.00
2023-06-19T10:45:52.350Z,1606.00
2023-06-19T10:46:52.312Z,1681.00
2023-06-19T10:47:52.349Z,1681.00
2023-06-19T10:48:52.342Z,1585.00
2023-06-19T10:49:52.352Z,1523.00
2023-06-19T10:50:52.362Z,1456.00
2023-06-19T10:51:52.375Z,1374.00
2023-06-19T10:52:52.384Z,1243.00
2023-06-19T10:53:52.424Z,1150.00
2023-06-19T10:54:52.466Z,1265.00
2023-06-19T10:55:52.534Z,1340.00
2023-06-19T10:56:52.602Z,1435.00
2023-06-19T10:57:52.665Z,1492.00
2023-06-19T10:58:52.695Z,1580.00
2023-06-19T10:59:52.749Z,1711.00
2023-06-19T11:00:52.772Z,1795.00
2023-06-19T11:01:52.803Z,1914.00
2023-06-19T11:02:52.909Z,2020.00
2023-06-19T11:03:53.023Z,2109.00
2023-06-19T11:04:52.963Z,2209.00
2023-06-19T11:05:53.038Z,2318.00
2023-06-19T11:06:53.090Z,2414.00
2023-06-19T11:07:53.182Z,2491.00
2023-06-19T11:08:53.327Z,2549.00
2023-06-19T11:09:53.252Z,2552.00
2023-06-19T11:10:53.268Z,2554.00
2023-06-19T11:11:53.275Z,2556.00
2023-06-19T11:12:53.293Z,2587.00
2023-06-19T11:13:53.284Z,2677.00
2023-06-19T11:14:53.312Z,2876.00
2023-06-19T11:15:53.344Z,3203.00
2023-06-19T11:16:53.353Z,3256.00
2023-06-19T11:17:53.407Z,3181.00
2023-06-19T11:18:53.295Z,3132.00
2023-06-19T11:19:53.318Z,3098.00
2023-06-19T11:20:53.321Z,3046.00
2023-06-19T11:21:53.362Z,3049.00
2023-06-19T11:22:53.435Z,3087.00
2023-06-19T11:23:53.506Z,3098.00
2023-06-19T11:24:53.502Z,3099.00
2023-06-19T11:25:53.525Z,3100.00
2023-06-19T11:26:53.564Z,3102.00
2023-06-19T11:27:53.534Z,3122.00
2023-06-19T11:28:53.570Z,3162.00
2023-06-19T11:29:53.529Z,3192.00
2023-06-19T11:30:53.572Z,3173.00
2023-06-19T11:31:53.533Z,3141.00
2023-06-19T11:32:53.566Z,3156.00
2023-06-19T11:33:53.542Z,3116.00
2023-06-19T11:34:53.544Z,3034.00
2023-06-19T11:35:53.585Z,3004.00
2023-06-19T11:36:53.564Z,2960.00
2023-06-19T11:37:53.584Z,2936.00
2023-06-19T11:38:53.581Z,2950.00
2023-06-19T11:39:53.657Z,2963.00
2023-06-19T11:40:53.613Z,2812.00
2023-06-19T11:41:55.115Z,2774.00
2023-06-19T11:42:53.624Z,2726.00
2023-06-19T11:43:53.689Z,2652.00
2023-06-19T11:44:53.764Z,2533.00
2023-06-19T11:45:53.924Z,2469.00
2023-06-19T11:46:53.900Z,2376.00
2023-06-19T11:47:54.033Z,2299.00
2023-06-19T11:49:07.128Z,2229.00
2023-06-19T11:49:55.053Z,2198.00
2023-06-19T11:50:54.079Z,2120.00
2023-06-19T11:51:54.060Z,2069.00
2023-06-19T11:52:54.066Z,1992.00
2023-06-19T11:53:54.077Z,1985.00
2023-06-19T11:54:54.069Z,1973.00
2023-06-19T11:55:54.084Z,1985.00
2023-06-19T11:56:54.097Z,1983.00
2023-06-19T11:57:54.107Z,2025.00
2023-06-19T11:58:54.097Z,2015.00
2023-06-19T11:59:54.093Z,2018.00
2023-06-19T12:00:54.168Z,2023.00
2023-06-19T12:01:54.258Z,2012.00
2023-06-19T12:02:54.349Z,1969.00
2023-06-19T12:03:54.445Z,1989.00
2023-06-19T12:04:54.494Z,2051.00
2023-06-19T12:05:54.537Z,2161.00
2023-06-19T12:06:54.588Z,2253.00
2023-06-19T12:07:54.664Z,2320.00
2023-06-19T12:08:54.718Z,2366.00
2023-06-19T12:09:54.788Z,2432.00
2023-06-19T12:10:54.869Z,2451.00
2023-06-19T12:11:54.930Z,2523.00
2023-06-19T12:12:55.011Z,2564.00
2023-06-19T12:13:55.041Z,2611.00
2023-06-19T12:14:55.081Z,2672.00